sensor_id;sensor_type;location;lat;lon;timestamp;P1;durP1;ratioP1;P2;durP2;ratioP2
1350;SDS011;669;50.206;9.998;2024-01-15T00:00:09;42.70;;;19.47;;
1350;SDS011;669;50.206;9.998;2024-01-15T00:02:38;54.80;;;20.10;;
1350;SDS011;669;50.206;9.998;2024-01-15T00:05:06;42.60;;;17.97;;
1350;SDS011;669;50.206;9.998;2024-01-15T00:07:34;40.30;;;16.30;;
1350;SDS011;669;50.206;9.998;2024-01-15T00:10:03;40.30;;;16.63;;
1350;SDS011;669;50.206;9.998;2024-01-15T00:12:33;51.33;;;18.67;;
1350;SDS011;669;50.206;9.998;2024-01-15T00:15:01;41.53;;;19.77;;
1350;SDS011;669;50.206;9.998;2024-01-15T00:17:29;42.40;;;17.50;;
1350;SDS011;669;50.206;9.998;2024-01-15T00:19:57;45.87;;;17.33;;
1350;SDS011;669;50.206;9.998;2024-01-15T00:22:25;47.23;;;16.60;;
1350;SDS011;669;50.206;9.998;2024-01-15T00:24:54;42.70;;;18.80;;
1350;SDS011;669;50.206;9.998;2024-01-15T00:27:22;42.50;;;18.17;;
1350;SDS011;669;50.206;9.998;2024-01-15T00:29:51;38.07;;;15.30;;
1350;SDS011;669;50.206;9.998;2024-01-15T00:32:20;39.70;;;16.33;;
1350;SDS011;669;50.206;9.998;2024-01-15T00:34:48;44.20;;;17.10;;
1350;SDS011;669;50.206;9.998;2024-01-15T00:37:17;31.67;;;14.03;;
1350;SDS011;669;50.206;9.998;2024-01-15T00:39:45;30.70;;;14.77;;
1350;SDS011;669;50.206;9.998;2024-01-15T00:42:13;31.90;;;15.17;;
1350;SDS011;669;50.206;9.998;2024-01-15T00:44:41;33.63;;;16.13;;
1350;SDS011;669;50.206;9.998;2024-01-15T00:47:11;29.40;;;14.17;;
1350;SDS011;669;50.206;9.998;2024-01-15T00:49:39;32.03;;;15.33;;
1350;SDS011;669;50.206;9.998;2024-01-15T00:52:07;30.27;;;14.03;;
1350;SDS011;669;50.206;9.998;2024-01-15T00:54:35;38.23;;;16.07;;
1350;SDS011;669;50.206;9.998;2024-01-15T00:57:04;31.87;;;15.87;;
1350;SDS011;669;50.206;9.998;2024-01-15T00:59:32;34.43;;;13.67;;
1350;SDS011;669;50.206;9.998;2024-01-15T01:02:00;32.23;;;15.13;;
1350;SDS011;669;50.206;9.998;2024-01-15T01:04:30;28.57;;;14.37;;
1350;SDS011;669;50.206;9.998;2024-01-15T01:06:58;38.57;;;17.30;;
1350;SDS011;669;50.206;9.998;2024-01-15T01:09:26;32.33;;;13.93;;
1350;SDS011;669;50.206;9.998;2024-01-15T01:11:56;34.30;;;13.80;;
1350;SDS011;669;50.206;9.998;2024-01-15T01:14:24;28.97;;;13.87;;
1350;SDS011;669;50.206;9.998;2024-01-15T01:16:52;26.53;;;13.67;;
1350;SDS011;669;50.206;9.998;2024-01-15T01:19:20;32.93;;;13.23;;
1350;SDS011;669;50.206;9.998;2024-01-15T01:21:50;24.33;;;11.87;;
1350;SDS011;669;50.206;9.998;2024-01-15T01:24:18;25.60;;;13.00;;
1350;SDS011;669;50.206;9.998;2024-01-15T01:26:46;32.30;;;13.43;;
1350;SDS011;669;50.206;9.998;2024-01-15T01:29:14;32.43;;;14.47;;
1350;SDS011;669;50.206;9.998;2024-01-15T01:31:42;31.10;;;13.90;;
1350;SDS011;669;50.206;9.998;2024-01-15T01:34:13;35.90;;;14.13;;
1350;SDS011;669;50.206;9.998;2024-01-15T01:36:42;28.67;;;15.23;;
1350;SDS011;669;50.206;9.998;2024-01-15T01:39:12;30.47;;;15.97;;
1350;SDS011;669;50.206;9.998;2024-01-15T01:41:40;34.07;;;14.97;;
1350;SDS011;669;50.206;9.998;2024-01-15T01:44:08;30.67;;;14.43;;
1350;SDS011;669;50.206;9.998;2024-01-15T01:46:36;41.33;;;15.67;;
1350;SDS011;669;50.206;9.998;2024-01-15T01:49:07;35.03;;;14.53;;
1350;SDS011;669;50.206;9.998;2024-01-15T01:51:36;36.00;;;13.80;;
1350;SDS011;669;50.206;9.998;2024-01-15T01:54:06;30.27;;;15.63;;
1350;SDS011;669;50.206;9.998;2024-01-15T01:56:37;34.23;;;16.67;;
1350;SDS011;669;50.206;9.998;2024-01-15T01:59:05;30.30;;;16.33;;
1350;SDS011;669;50.206;9.998;2024-01-15T02:01:35;32.30;;;15.10;;
1350;SDS011;669;50.206;9.998;2024-01-15T02:04:03;28.67;;;14.30;;
1350;SDS011;669;50.206;9.998;2024-01-15T02:06:33;35.07;;;15.87;;
1350;SDS011;669;50.206;9.998;2024-01-15T02:09:01;27.07;;;12.67;;
1350;SDS011;669;50.206;9.998;2024-01-15T02:11:29;27.63;;;14.00;;
1350;SDS011;669;50.206;9.998;2024-01-15T02:13:58;29.10;;;14.90;;
1350;SDS011;669;50.206;9.998;2024-01-15T02:16:26;34.93;;;16.67;;
1350;SDS011;669;50.206;9.998;2024-01-15T02:18:54;31.47;;;13.47;;
1350;SDS011;669;50.206;9.998;2024-01-15T02:21:22;30.73;;;13.70;;
1350;SDS011;669;50.206;9.998;2024-01-15T02:23:54;31.20;;;14.03;;
1350;SDS011;669;50.206;9.998;2024-01-15T02:26:22;26.60;;;12.83;;
1350;SDS011;669;50.206;9.998;2024-01-15T02:28:50;22.70;;;11.73;;
1350;SDS011;669;50.206;9.998;2024-01-15T02:31:18;30.73;;;13.80;;
1350;SDS011;669;50.206;9.998;2024-01-15T02:33:47;27.63;;;12.03;;
1350;SDS011;669;50.206;9.998;2024-01-15T02:36:15;26.37;;;12.67;;
1350;SDS011;669;50.206;9.998;2024-01-15T02:38:43;28.53;;;12.57;;
1350;SDS011;669;50.206;9.998;2024-01-15T02:41:12;24.17;;;12.70;;
1350;SDS011;669;50.206;9.998;2024-01-15T02:43:41;27.30;;;13.07;;
1350;SDS011;669;50.206;9.998;2024-01-15T02:46:09;26.40;;;12.70;;
1350;SDS011;669;50.206;9.998;2024-01-15T02:48:37;27.53;;;13.10;;
1350;SDS011;669;50.206;9.998;2024-01-15T02:51:05;24.97;;;12.83;;
1350;SDS011;669;50.206;9.998;2024-01-15T02:53:33;18.93;;;10.60;;
1350;SDS011;669;50.206;9.998;2024-01-15T02:56:01;22.33;;;10.43;;
1350;SDS011;669;50.206;9.998;2024-01-15T02:58:30;24.43;;;11.73;;
1350;SDS011;669;50.206;9.998;2024-01-15T03:00:58;25.33;;;12.77;;
1350;SDS011;669;50.206;9.998;2024-01-15T03:03:26;25.17;;;11.43;;
1350;SDS011;669;50.206;9.998;2024-01-15T03:05:54;23.43;;;11.57;;
1350;SDS011;669;50.206;9.998;2024-01-15T03:08:23;26.33;;;13.77;;
1350;SDS011;669;50.206;9.998;2024-01-15T03:10:50;23.50;;;12.00;;
1350;SDS011;669;50.206;9.998;2024-01-15T03:13:18;22.00;;;11.97;;
1350;SDS011;669;50.206;9.998;2024-01-15T03:15:48;22.53;;;13.30;;
1350;SDS011;669;50.206;9.998;2024-01-15T03:18:16;21.13;;;10.90;;
1350;SDS011;669;50.206;9.998;2024-01-15T03:20:44;27.27;;;13.23;;
1350;SDS011;669;50.206;9.998;2024-01-15T03:23:12;28.43;;;13.17;;
1350;SDS011;669;50.206;9.998;2024-01-15T03:25:40;30.30;;;11.37;;
1350;SDS011;669;50.206;9.998;2024-01-15T03:28:08;24.93;;;12.13;;
1350;SDS011;669;50.206;9.998;2024-01-15T03:30:36;28.53;;;14.00;;
1350;SDS011;669;50.206;9.998;2024-01-15T03:33:05;33.87;;;13.50;;
1350;SDS011;669;50.206;9.998;2024-01-15T03:35:33;23.83;;;12.50;;
1350;SDS011;669;50.206;9.998;2024-01-15T03:38:01;24.17;;;12.83;;
1350;SDS011;669;50.206;9.998;2024-01-15T03:40:29;25.43;;;13.17;;
1350;SDS011;669;50.206;9.998;2024-01-15T03:42:57;23.97;;;13.50;;
1350;SDS011;669;50.206;9.998;2024-01-15T03:45:25;27.17;;;12.43;;
1350;SDS011;669;50.206;9.998;2024-01-15T03:47:53;29.67;;;13.77;;
1350;SDS011;669;50.206;9.998;2024-01-15T03:50:22;30.83;;;13.63;;
1350;SDS011;669;50.206;9.998;2024-01-15T03:52:51;30.60;;;13.20;;
1350;SDS011;669;50.206;9.998;2024-01-15T03:55:19;29.80;;;13.30;;
1350;SDS011;669;50.206;9.998;2024-01-15T03:57:47;30.67;;;11.90;;
1350;SDS011;669;50.206;9.998;2024-01-15T04:00:15;24.70;;;12.37;;
1350;SDS011;669;50.206;9.998;2024-01-15T04:02:44;28.30;;;13.73;;
1350;SDS011;669;50.206;9.998;2024-01-15T04:05:12;26.53;;;14.17;;
1350;SDS011;669;50.206;9.998;2024-01-15T04:07:41;31.40;;;15.50;;
1350;SDS011;669;50.206;9.998;2024-01-15T04:10:09;26.17;;;12.23;;
1350;SDS011;669;50.206;9.998;2024-01-15T04:12:37;27.30;;;12.57;;
1350;SDS011;669;50.206;9.998;2024-01-15T04:15:06;31.50;;;12.67;;
1350;SDS011;669;50.206;9.998;2024-01-15T04:17:34;28.60;;;13.30;;
1350;SDS011;669;50.206;9.998;2024-01-15T04:20:02;29.93;;;14.77;;
1350;SDS011;669;50.206;9.998;2024-01-15T04:22:31;26.93;;;14.10;;
1350;SDS011;669;50.206;9.998;2024-01-15T04:25:00;27.87;;;11.40;;
1350;SDS011;669;50.206;9.998;2024-01-15T04:27:28;33.27;;;13.50;;
1350;SDS011;669;50.206;9.998;2024-01-15T04:29:56;26.83;;;12.13;;
1350;SDS011;669;50.206;9.998;2024-01-15T04:32:24;24.37;;;10.93;;
1350;SDS011;669;50.206;9.998;2024-01-15T04:34:52;22.13;;;12.83;;
1350;SDS011;669;50.206;9.998;2024-01-15T04:37:20;29.87;;;12.63;;
1350;SDS011;669;50.206;9.998;2024-01-15T04:39:48;28.20;;;12.67;;
1350;SDS011;669;50.206;9.998;2024-01-15T04:42:20;23.60;;;13.37;;
1350;SDS011;669;50.206;9.998;2024-01-15T04:44:48;26.00;;;12.43;;
1350;SDS011;669;50.206;9.998;2024-01-15T04:47:16;27.50;;;12.57;;
1350;SDS011;669;50.206;9.998;2024-01-15T04:49:44;20.10;;;10.10;;
1350;SDS011;669;50.206;9.998;2024-01-15T04:52:12;27.33;;;11.30;;
1350;SDS011;669;50.206;9.998;2024-01-15T04:54:40;20.87;;;11.97;;
1350;SDS011;669;50.206;9.998;2024-01-15T04:57:08;21.83;;;10.87;;
1350;SDS011;669;50.206;9.998;2024-01-15T04:59:38;18.80;;;11.37;;
1350;SDS011;669;50.206;9.998;2024-01-15T05:02:06;19.37;;;10.70;;
1350;SDS011;669;50.206;9.998;2024-01-15T05:04:34;23.43;;;11.30;;
1350;SDS011;669;50.206;9.998;2024-01-15T05:07:02;20.60;;;11.80;;
1350;SDS011;669;50.206;9.998;2024-01-15T05:09:30;19.03;;;11.33;;
1350;SDS011;669;50.206;9.998;2024-01-15T05:11:58;24.07;;;11.50;;
1350;SDS011;669;50.206;9.998;2024-01-15T05:14:26;21.03;;;11.73;;
1350;SDS011;669;50.206;9.998;2024-01-15T05:16:55;21.83;;;9.87;;
1350;SDS011;669;50.206;9.998;2024-01-15T05:19:24;17.90;;;10.17;;
1350;SDS011;669;50.206;9.998;2024-01-15T05:21:52;21.97;;;12.33;;
1350;SDS011;669;50.206;9.998;2024-01-15T05:24:20;23.73;;;11.60;;
1350;SDS011;669;50.206;9.998;2024-01-15T05:26:48;18.40;;;10.40;;
1350;SDS011;669;50.206;9.998;2024-01-15T05:29:16;19.70;;;10.27;;
1350;SDS011;669;50.206;9.998;2024-01-15T05:31:44;23.13;;;11.00;;
1350;SDS011;669;50.206;9.998;2024-01-15T05:34:14;20.00;;;11.20;;
1350;SDS011;669;50.206;9.998;2024-01-15T05:36:42;21.47;;;10.67;;
1350;SDS011;669;50.206;9.998;2024-01-15T05:39:10;26.53;;;11.60;;
1350;SDS011;669;50.206;9.998;2024-01-15T05:41:38;26.47;;;11.43;;
1350;SDS011;669;50.206;9.998;2024-01-15T05:44:06;24.63;;;11.47;;
1350;SDS011;669;50.206;9.998;2024-01-15T05:46:33;23.97;;;11.90;;
1350;SDS011;669;50.206;9.998;2024-01-15T05:49:01;23.80;;;11.87;;
1350;SDS011;669;50.206;9.998;2024-01-15T05:51:31;22.70;;;11.07;;
1350;SDS011;669;50.206;9.998;2024-01-15T05:53:59;22.63;;;11.40;;
1350;SDS011;669;50.206;9.998;2024-01-15T05:56:27;24.03;;;10.80;;
1350;SDS011;669;50.206;9.998;2024-01-15T05:58:55;21.23;;;11.10;;
1350;SDS011;669;50.206;9.998;2024-01-15T06:01:23;26.07;;;12.63;;
1350;SDS011;669;50.206;9.998;2024-01-15T06:03:51;30.13;;;12.17;;
1350;SDS011;669;50.206;9.998;2024-01-15T06:06:20;23.17;;;11.37;;
1350;SDS011;669;50.206;9.998;2024-01-15T06:08:49;26.73;;;11.70;;
1350;SDS011;669;50.206;9.998;2024-01-15T06:11:17;26.73;;;11.33;;
1350;SDS011;669;50.206;9.998;2024-01-15T06:13:45;26.30;;;12.30;;
1350;SDS011;669;50.206;9.998;2024-01-15T06:16:13;26.40;;;12.10;;
1350;SDS011;669;50.206;9.998;2024-01-15T06:18:43;25.43;;;12.00;;
1350;SDS011;669;50.206;9.998;2024-01-15T06:21:11;24.27;;;11.20;;
1350;SDS011;669;50.206;9.998;2024-01-15T06:23:40;24.40;;;11.87;;
1350;SDS011;669;50.206;9.998;2024-01-15T06:26:12;34.47;;;12.57;;
1350;SDS011;669;50.206;9.998;2024-01-15T06:28:40;21.67;;;12.37;;
1350;SDS011;669;50.206;9.998;2024-01-15T06:31:08;24.20;;;11.90;;
1350;SDS011;669;50.206;9.998;2024-01-15T06:33:36;19.70;;;11.20;;
1350;SDS011;669;50.206;9.998;2024-01-15T06:36:05;28.57;;;11.40;;
1350;SDS011;669;50.206;9.998;2024-01-15T06:38:34;24.27;;;13.10;;
1350;SDS011;669;50.206;9.998;2024-01-15T06:41:02;30.27;;;13.17;;
1350;SDS011;669;50.206;9.998;2024-01-15T06:43:32;17.33;;;9.67;;
1350;SDS011;669;50.206;9.998;2024-01-15T06:45:59;21.80;;;11.20;;
1350;SDS011;669;50.206;9.998;2024-01-15T06:48:32;18.03;;;10.67;;
1350;SDS011;669;50.206;9.998;2024-01-15T06:51:01;22.10;;;11.10;;
1350;SDS011;669;50.206;9.998;2024-01-15T06:53:29;22.53;;;11.13;;
1350;SDS011;669;50.206;9.998;2024-01-15T06:55:56;21.37;;;9.77;;
1350;SDS011;669;50.206;9.998;2024-01-15T06:58:24;17.37;;;9.40;;
1350;SDS011;669;50.206;9.998;2024-01-15T07:00:54;22.80;;;11.50;;
1350;SDS011;669;50.206;9.998;2024-01-15T07:03:22;22.40;;;10.80;;
1350;SDS011;669;50.206;9.998;2024-01-15T07:05:50;27.83;;;12.80;;
1350;SDS011;669;50.206;9.998;2024-01-15T07:08:18;27.77;;;12.40;;
1350;SDS011;669;50.206;9.998;2024-01-15T07:10:46;20.63;;;11.30;;
1350;SDS011;669;50.206;9.998;2024-01-15T07:13:14;21.47;;;10.50;;
1350;SDS011;669;50.206;9.998;2024-01-15T07:15:41;26.30;;;12.57;;
1350;SDS011;669;50.206;9.998;2024-01-15T07:18:11;25.00;;;11.17;;
1350;SDS011;669;50.206;9.998;2024-01-15T07:20:39;22.07;;;12.30;;
1350;SDS011;669;50.206;9.998;2024-01-15T07:23:07;21.70;;;10.67;;
1350;SDS011;669;50.206;9.998;2024-01-15T07:25:35;16.90;;;9.97;;
1350;SDS011;669;50.206;9.998;2024-01-15T07:28:03;23.17;;;12.90;;
1350;SDS011;669;50.206;9.998;2024-01-15T07:30:31;26.53;;;11.83;;
1350;SDS011;669;50.206;9.998;2024-01-15T07:33:00;23.50;;;12.70;;
1350;SDS011;669;50.206;9.998;2024-01-15T07:35:31;20.43;;;11.83;;
1350;SDS011;669;50.206;9.998;2024-01-15T07:37:59;24.93;;;10.60;;
1350;SDS011;669;50.206;9.998;2024-01-15T07:40:27;16.97;;;10.27;;
1350;SDS011;669;50.206;9.998;2024-01-15T07:42:55;18.37;;;10.43;;
1350;SDS011;669;50.206;9.998;2024-01-15T07:45:23;18.37;;;10.60;;
1350;SDS011;669;50.206;9.998;2024-01-15T07:47:51;18.57;;;10.30;;
1350;SDS011;669;50.206;9.998;2024-01-15T07:50:19;16.93;;;9.90;;
1350;SDS011;669;50.206;9.998;2024-01-15T07:52:48;26.53;;;11.50;;
1350;SDS011;669;50.206;9.998;2024-01-15T07:55:16;18.60;;;9.97;;
1350;SDS011;669;50.206;9.998;2024-01-15T07:57:44;15.60;;;10.00;;
1350;SDS011;669;50.206;9.998;2024-01-15T08:00:24;17.43;;;10.10;;
1350;SDS011;669;50.206;9.998;2024-01-15T08:02:52;18.67;;;10.20;;
1350;SDS011;669;50.206;9.998;2024-01-15T08:05:20;18.23;;;9.90;;
1350;SDS011;669;50.206;9.998;2024-01-15T08:07:50;13.60;;;8.67;;
1350;SDS011;669;50.206;9.998;2024-01-15T08:10:21;19.30;;;9.73;;
1350;SDS011;669;50.206;9.998;2024-01-15T08:12:49;15.87;;;8.60;;
1350;SDS011;669;50.206;9.998;2024-01-15T08:15:17;21.33;;;11.20;;
1350;SDS011;669;50.206;9.998;2024-01-15T08:17:45;18.70;;;10.47;;
1350;SDS011;669;50.206;9.998;2024-01-15T08:20:13;22.40;;;10.67;;
1350;SDS011;669;50.206;9.998;2024-01-15T08:22:42;20.33;;;9.87;;
1350;SDS011;669;50.206;9.998;2024-01-15T08:25:11;18.97;;;10.40;;
1350;SDS011;669;50.206;9.998;2024-01-15T08:27:40;19.87;;;9.27;;
1350;SDS011;669;50.206;9.998;2024-01-15T08:30:09;15.80;;;8.00;;
1350;SDS011;669;50.206;9.998;2024-01-15T08:32:38;22.67;;;9.43;;
1350;SDS011;669;50.206;9.998;2024-01-15T08:35:09;16.47;;;8.53;;
1350;SDS011;669;50.206;9.998;2024-01-15T08:40:05;20.53;;;10.40;;
1350;SDS011;669;50.206;9.998;2024-01-15T08:42:35;18.57;;;9.20;;
1350;SDS011;669;50.206;9.998;2024-01-15T08:45:03;16.07;;;10.33;;
1350;SDS011;669;50.206;9.998;2024-01-15T08:47:32;15.70;;;8.87;;
1350;SDS011;669;50.206;9.998;2024-01-15T08:50:00;22.37;;;9.97;;
1350;SDS011;669;50.206;9.998;2024-01-15T08:52:29;24.97;;;10.87;;
1350;SDS011;669;50.206;9.998;2024-01-15T08:54:57;13.90;;;8.93;;
1350;SDS011;669;50.206;9.998;2024-01-15T08:57:25;17.60;;;9.90;;
1350;SDS011;669;50.206;9.998;2024-01-15T08:59:55;16.83;;;9.33;;
1350;SDS011;669;50.206;9.998;2024-01-15T09:02:22;18.73;;;10.70;;
1350;SDS011;669;50.206;9.998;2024-01-15T09:04:50;17.10;;;9.77;;
1350;SDS011;669;50.206;9.998;2024-01-15T09:07:19;18.40;;;10.60;;
1350;SDS011;669;50.206;9.998;2024-01-15T09:09:47;19.80;;;9.37;;
1350;SDS011;669;50.206;9.998;2024-01-15T09:12:15;17.93;;;9.50;;
1350;SDS011;669;50.206;9.998;2024-01-15T09:14:44;18.83;;;9.63;;
1350;SDS011;669;50.206;9.998;2024-01-15T09:17:14;19.27;;;9.97;;
1350;SDS011;669;50.206;9.998;2024-01-15T09:19:42;25.43;;;10.90;;
1350;SDS011;669;50.206;9.998;2024-01-15T09:22:10;18.57;;;9.27;;
1350;SDS011;669;50.206;9.998;2024-01-15T09:24:40;17.63;;;11.03;;
1350;SDS011;669;50.206;9.998;2024-01-15T09:27:08;19.63;;;9.17;;
1350;SDS011;669;50.206;9.998;2024-01-15T09:29:36;23.77;;;9.67;;
1350;SDS011;669;50.206;9.998;2024-01-15T09:32:06;24.00;;;10.90;;
1350;SDS011;669;50.206;9.998;2024-01-15T09:34:35;19.07;;;10.43;;
1350;SDS011;669;50.206;9.998;2024-01-15T09:37:04;21.03;;;10.67;;
1350;SDS011;669;50.206;9.998;2024-01-15T09:39:32;15.10;;;9.60;;
1350;SDS011;669;50.206;9.998;2024-01-15T09:42:00;21.40;;;11.03;;
1350;SDS011;669;50.206;9.998;2024-01-15T09:44:29;20.53;;;9.90;;
1350;SDS011;669;50.206;9.998;2024-01-15T09:46:58;16.60;;;9.17;;
1350;SDS011;669;50.206;9.998;2024-01-15T09:49:27;18.93;;;10.23;;
1350;SDS011;669;50.206;9.998;2024-01-15T09:51:57;14.83;;;9.60;;
1350;SDS011;669;50.206;9.998;2024-01-15T09:54:37;17.47;;;9.33;;
1350;SDS011;669;50.206;9.998;2024-01-15T09:57:06;15.57;;;9.07;;
1350;SDS011;669;50.206;9.998;2024-01-15T09:59:34;16.57;;;9.50;;
1350;SDS011;669;50.206;9.998;2024-01-15T10:02:05;19.97;;;9.50;;
1350;SDS011;669;50.206;9.998;2024-01-15T10:04:34;16.67;;;9.17;;
1350;SDS011;669;50.206;9.998;2024-01-15T10:07:03;14.57;;;9.73;;
1350;SDS011;669;50.206;9.998;2024-01-15T10:09:34;19.00;;;10.43;;
1350;SDS011;669;50.206;9.998;2024-01-15T10:12:02;17.77;;;8.70;;
1350;SDS011;669;50.206;9.998;2024-01-15T10:14:31;15.77;;;8.50;;
1350;SDS011;669;50.206;9.998;2024-01-15T10:16:59;16.77;;;9.60;;
1350;SDS011;669;50.206;9.998;2024-01-15T10:19:27;15.63;;;9.70;;
1350;SDS011;669;50.206;9.998;2024-01-15T10:21:55;13.83;;;8.80;;
1350;SDS011;669;50.206;9.998;2024-01-15T10:24:25;15.97;;;9.83;;
1350;SDS011;669;50.206;9.998;2024-01-15T10:26:54;15.67;;;9.40;;
1350;SDS011;669;50.206;9.998;2024-01-15T10:29:33;23.83;;;10.23;;
1350;SDS011;669;50.206;9.998;2024-01-15T10:32:01;22.77;;;10.60;;
1350;SDS011;669;50.206;9.998;2024-01-15T10:34:30;15.83;;;9.27;;
1350;SDS011;669;50.206;9.998;2024-01-15T10:36:58;18.80;;;10.10;;
1350;SDS011;669;50.206;9.998;2024-01-15T10:39:27;15.60;;;9.23;;
1350;SDS011;669;50.206;9.998;2024-01-15T10:41:56;19.57;;;10.73;;
1350;SDS011;669;50.206;9.998;2024-01-15T10:44:25;19.20;;;9.60;;
1350;SDS011;669;50.206;9.998;2024-01-15T10:46:53;13.93;;;9.33;;
1350;SDS011;669;50.206;9.998;2024-01-15T10:49:22;21.87;;;9.87;;
1350;SDS011;669;50.206;9.998;2024-01-15T10:51:58;14.80;;;8.90;;
1350;SDS011;669;50.206;9.998;2024-01-15T10:54:28;18.83;;;10.70;;
1350;SDS011;669;50.206;9.998;2024-01-15T10:56:57;26.10;;;12.67;;
1350;SDS011;669;50.206;9.998;2024-01-15T10:59:25;19.57;;;11.40;;
1350;SDS011;669;50.206;9.998;2024-01-15T11:01:53;18.20;;;9.87;;
1350;SDS011;669;50.206;9.998;2024-01-15T11:04:22;24.97;;;12.00;;
1350;SDS011;669;50.206;9.998;2024-01-15T11:06:53;19.80;;;10.80;;
1350;SDS011;669;50.206;9.998;2024-01-15T11:09:23;17.50;;;10.23;;
1350;SDS011;669;50.206;9.998;2024-01-15T11:12:06;21.67;;;11.60;;
1350;SDS011;669;50.206;9.998;2024-01-15T11:14:35;18.73;;;10.43;;
1350;SDS011;669;50.206;9.998;2024-01-15T11:17:06;16.50;;;9.43;;
1350;SDS011;669;50.206;9.998;2024-01-15T11:19:36;22.80;;;11.47;;
1350;SDS011;669;50.206;9.998;2024-01-15T11:22:07;15.90;;;10.23;;
1350;SDS011;669;50.206;9.998;2024-01-15T11:24:36;17.30;;;9.47;;
1350;SDS011;669;50.206;9.998;2024-01-15T11:27:07;20.17;;;10.80;;
1350;SDS011;669;50.206;9.998;2024-01-15T11:29:36;23.93;;;11.20;;
1350;SDS011;669;50.206;9.998;2024-01-15T11:32:05;19.77;;;10.07;;
1350;SDS011;669;50.206;9.998;2024-01-15T11:34:53;23.30;;;11.27;;
1350;SDS011;669;50.206;9.998;2024-01-15T11:37:26;21.23;;;9.87;;
1350;SDS011;669;50.206;9.998;2024-01-15T11:39:55;21.70;;;10.63;;
1350;SDS011;669;50.206;9.998;2024-01-15T11:42:29;19.10;;;11.20;;
1350;SDS011;669;50.206;9.998;2024-01-15T11:44:57;19.27;;;9.83;;
1350;SDS011;669;50.206;9.998;2024-01-15T11:50:33;17.30;;;8.77;;
1350;SDS011;669;50.206;9.998;2024-01-15T11:53:02;18.50;;;8.90;;
1350;SDS011;669;50.206;9.998;2024-01-15T11:55:38;23.20;;;11.10;;
1350;SDS011;669;50.206;9.998;2024-01-15T11:58:10;16.83;;;9.10;;
1350;SDS011;669;50.206;9.998;2024-01-15T12:00:42;18.60;;;10.67;;
1350;SDS011;669;50.206;9.998;2024-01-15T12:03:11;20.43;;;10.60;;
1350;SDS011;669;50.206;9.998;2024-01-15T12:05:39;15.60;;;9.77;;
1350;SDS011;669;50.206;9.998;2024-01-15T12:08:08;15.93;;;10.27;;
1350;SDS011;669;50.206;9.998;2024-01-15T12:10:38;18.17;;;8.77;;
1350;SDS011;669;50.206;9.998;2024-01-15T12:13:11;15.13;;;8.80;;
1350;SDS011;669;50.206;9.998;2024-01-15T12:15:40;10.33;;;6.63;;
1350;SDS011;669;50.206;9.998;2024-01-15T12:18:10;10.30;;;6.73;;
1350;SDS011;669;50.206;9.998;2024-01-15T12:20:40;11.13;;;7.60;;
1350;SDS011;669;50.206;9.998;2024-01-15T12:23:10;21.47;;;8.33;;
1350;SDS011;669;50.206;9.998;2024-01-15T12:25:39;13.70;;;7.80;;
1350;SDS011;669;50.206;9.998;2024-01-15T12:28:08;10.97;;;6.87;;
1350;SDS011;669;50.206;9.998;2024-01-15T12:30:38;12.50;;;8.03;;
1350;SDS011;669;50.206;9.998;2024-01-15T12:33:07;12.80;;;7.17;;
1350;SDS011;669;50.206;9.998;2024-01-15T12:35:36;13.27;;;6.93;;
1350;SDS011;669;50.206;9.998;2024-01-15T12:38:04;11.00;;;6.67;;
1350;SDS011;669;50.206;9.998;2024-01-15T12:40:32;13.53;;;8.43;;
1350;SDS011;669;50.206;9.998;2024-01-15T12:43:03;10.73;;;6.63;;
1350;SDS011;669;50.206;9.998;2024-01-15T12:45:32;9.27;;;6.70;;
1350;SDS011;669;50.206;9.998;2024-01-15T12:48:04;14.20;;;7.90;;
1350;SDS011;669;50.206;9.998;2024-01-15T12:50:33;13.13;;;7.10;;
1350;SDS011;669;50.206;9.998;2024-01-15T12:53:02;12.30;;;7.70;;
1350;SDS011;669;50.206;9.998;2024-01-15T12:55:30;20.53;;;8.30;;
1350;SDS011;669;50.206;9.998;2024-01-15T12:58:00;14.70;;;8.60;;
1350;SDS011;669;50.206;9.998;2024-01-15T13:00:28;13.90;;;9.67;;
1350;SDS011;669;50.206;9.998;2024-01-15T13:02:56;11.30;;;7.30;;
1350;SDS011;669;50.206;9.998;2024-01-15T13:05:26;15.20;;;8.80;;
1350;SDS011;669;50.206;9.998;2024-01-15T13:07:55;12.50;;;7.33;;
1350;SDS011;669;50.206;9.998;2024-01-15T13:10:23;12.00;;;7.60;;
1350;SDS011;669;50.206;9.998;2024-01-15T13:12:52;12.90;;;7.60;;
1350;SDS011;669;50.206;9.998;2024-01-15T13:15:20;13.80;;;7.50;;
1350;SDS011;669;50.206;9.998;2024-01-15T13:17:48;14.47;;;8.40;;
1350;SDS011;669;50.206;9.998;2024-01-15T13:20:16;16.70;;;8.27;;
1350;SDS011;669;50.206;9.998;2024-01-15T13:22:46;13.60;;;8.60;;
1350;SDS011;669;50.206;9.998;2024-01-15T13:25:14;15.63;;;8.63;;
1350;SDS011;669;50.206;9.998;2024-01-15T13:27:42;13.27;;;8.77;;
1350;SDS011;669;50.206;9.998;2024-01-15T13:30:11;22.57;;;10.53;;
1350;SDS011;669;50.206;9.998;2024-01-15T13:32:40;16.10;;;9.53;;
1350;SDS011;669;50.206;9.998;2024-01-15T13:35:08;14.67;;;9.77;;
1350;SDS011;669;50.206;9.998;2024-01-15T13:37:40;16.67;;;9.77;;
1350;SDS011;669;50.206;9.998;2024-01-15T13:40:10;18.60;;;10.77;;
1350;SDS011;669;50.206;9.998;2024-01-15T13:42:43;15.53;;;9.70;;
1350;SDS011;669;50.206;9.998;2024-01-15T13:45:12;17.17;;;10.50;;
1350;SDS011;669;50.206;9.998;2024-01-15T13:47:41;16.03;;;9.20;;
1350;SDS011;669;50.206;9.998;2024-01-15T13:50:09;15.33;;;9.90;;
1350;SDS011;669;50.206;9.998;2024-01-15T13:52:37;19.27;;;10.10;;
1350;SDS011;669;50.206;9.998;2024-01-15T13:55:05;18.50;;;9.67;;
1350;SDS011;669;50.206;9.998;2024-01-15T13:57:36;15.97;;;9.10;;
1350;SDS011;669;50.206;9.998;2024-01-15T14:00:05;16.30;;;8.60;;
1350;SDS011;669;50.206;9.998;2024-01-15T14:02:38;14.07;;;8.33;;
1350;SDS011;669;50.206;9.998;2024-01-15T14:05:07;16.20;;;8.77;;
1350;SDS011;669;50.206;9.998;2024-01-15T14:07:35;13.50;;;8.93;;
1350;SDS011;669;50.206;9.998;2024-01-15T14:10:03;15.57;;;8.93;;
1350;SDS011;669;50.206;9.998;2024-01-15T14:12:32;12.53;;;8.20;;
1350;SDS011;669;50.206;9.998;2024-01-15T14:15:03;12.03;;;8.33;;
1350;SDS011;669;50.206;9.998;2024-01-15T14:17:32;13.73;;;7.10;;
1350;SDS011;669;50.206;9.998;2024-01-15T14:20:00;11.90;;;6.83;;
1350;SDS011;669;50.206;9.998;2024-01-15T14:22:31;12.50;;;7.60;;
1350;SDS011;669;50.206;9.998;2024-01-15T14:24:59;10.80;;;7.27;;
1350;SDS011;669;50.206;9.998;2024-01-15T14:27:27;12.30;;;7.83;;
1350;SDS011;669;50.206;9.998;2024-01-15T14:29:55;11.97;;;7.00;;
1350;SDS011;669;50.206;9.998;2024-01-15T14:32:25;9.30;;;7.20;;
1350;SDS011;669;50.206;9.998;2024-01-15T14:34:53;11.33;;;7.20;;
1350;SDS011;669;50.206;9.998;2024-01-15T14:37:23;13.20;;;7.80;;
1350;SDS011;669;50.206;9.998;2024-01-15T14:39:51;11.40;;;7.43;;
1350;SDS011;669;50.206;9.998;2024-01-15T14:42:19;13.33;;;7.30;;
1350;SDS011;669;50.206;9.998;2024-01-15T14:44:47;10.37;;;6.77;;
1350;SDS011;669;50.206;9.998;2024-01-15T14:47:15;10.37;;;7.43;;
1350;SDS011;669;50.206;9.998;2024-01-15T14:49:44;9.90;;;7.30;;
1350;SDS011;669;50.206;9.998;2024-01-15T14:52:12;11.37;;;6.20;;
1350;SDS011;669;50.206;9.998;2024-01-15T14:54:40;10.80;;;6.30;;
1350;SDS011;669;50.206;9.998;2024-01-15T14:57:08;11.70;;;6.53;;
1350;SDS011;669;50.206;9.998;2024-01-15T14:59:36;7.20;;;4.83;;
1350;SDS011;669;50.206;9.998;2024-01-15T15:02:04;10.27;;;6.27;;
1350;SDS011;669;50.206;9.998;2024-01-15T15:04:33;13.43;;;7.40;;
1350;SDS011;669;50.206;9.998;2024-01-15T15:07:02;14.10;;;7.50;;
1350;SDS011;669;50.206;9.998;2024-01-15T15:09:32;10.37;;;6.83;;
1350;SDS011;669;50.206;9.998;2024-01-15T15:12:00;14.40;;;7.53;;
1350;SDS011;669;50.206;9.998;2024-01-15T15:14:30;12.60;;;7.70;;
1350;SDS011;669;50.206;9.998;2024-01-15T15:17:16;14.50;;;8.00;;
1350;SDS011;669;50.206;9.998;2024-01-15T15:19:44;8.07;;;6.37;;
1350;SDS011;669;50.206;9.998;2024-01-15T15:22:14;12.63;;;7.27;;